createdAt,value
2023-04-16T00:00:32.857Z,94.83
2023-04-16T00:03:03.652Z,94.74
2023-04-16T00:05:34.501Z,94.68
2023-04-16T00:08:05.426Z,94.66
2023-04-16T00:10:36.998Z,94.53
2023-04-16T00:13:07.377Z,94.54
2023-04-16T00:15:38.447Z,94.41
2023-04-16T00:18:09.261Z,94.48
2023-04-16T00:20:39.838Z,94.50
2023-04-16T00:23:10.371Z,94.49
2023-04-16T00:25:40.980Z,94.48
2023-04-16T00:28:11.734Z,94.44
2023-04-16T00:30:42.198Z,94.58
2023-04-16T00:33:12.912Z,94.64
2023-04-16T00:35:46.411Z,94.48
2023-04-16T00:38:17.157Z,94.48
2023-04-16T00:40:48.048Z,94.52
2023-04-16T00:43:25.353Z,94.12
2023-04-16T00:45:57.693Z,93.92
2023-04-16T00:48:28.819Z,93.71
2023-04-16T00:51:01.066Z,93.69
2023-04-16T00:53:31.768Z,93.56
2023-04-16T00:56:03.397Z,93.87
2023-04-16T00:58:34.772Z,93.86
2023-04-16T01:01:05.693Z,94.05
2023-04-16T01:03:41.484Z,94.14
2023-04-16T01:06:12.689Z,94.20
2023-04-16T01:08:43.073Z,94.22
2023-04-16T01:11:15.031Z,94.49
2023-04-16T01:13:45.557Z,94.64
2023-04-16T01:16:16.067Z,94.57
2023-04-16T01:18:46.514Z,94.71
2023-04-16T01:21:17.454Z,94.88
2023-04-16T01:23:48.179Z,94.82
2023-04-16T01:26:19.009Z,95.01
2023-04-16T01:28:49.507Z,94.99
2023-04-16T01:31:20.363Z,94.92
2023-04-16T01:33:51.186Z,94.82
2023-04-16T01:36:21.609Z,94.91
2023-04-16T01:38:52.500Z,94.54
2023-04-16T01:41:23.015Z,94.61
2023-04-16T01:43:53.744Z,94.68
2023-04-16T01:46:28.766Z,94.47
2023-04-16T01:48:59.274Z,94.29
2023-04-16T01:51:29.695Z,94.04
2023-04-16T01:54:00.347Z,94.07
2023-04-16T01:56:31.250Z,94.18
2023-04-16T01:59:01.991Z,94.02
2023-04-16T02:01:32.939Z,93.78
2023-04-16T02:04:03.519Z,93.70
2023-04-16T02:06:33.965Z,93.58
2023-04-16T02:09:04.777Z,93.65
2023-04-16T02:11:35.426Z,93.69
2023-04-16T02:14:06.066Z,93.65
2023-04-16T02:16:36.563Z,93.60
2023-04-16T02:19:07.434Z,93.48
2023-04-16T02:21:38.016Z,93.65
2023-04-16T02:24:08.761Z,93.53
2023-04-16T02:26:39.652Z,93.28
2023-04-16T02:29:10.246Z,93.41
2023-04-16T02:31:41.053Z,93.21
2023-04-16T02:34:11.587Z,93.08
2023-04-16T02:36:42.072Z,93.13
2023-04-16T02:39:12.512Z,93.43
2023-04-16T02:41:42.961Z,93.43
2023-04-16T02:44:13.648Z,93.41
2023-04-16T02:46:44.300Z,93.26
2023-04-16T02:49:15.012Z,93.18
2023-04-16T02:51:45.752Z,93.37
2023-04-16T02:54:16.508Z,93.25
2023-04-16T02:56:47.159Z,93.44
2023-04-16T02:59:18.097Z,93.51
2023-04-16T03:01:48.952Z,93.72
2023-04-16T03:04:20.039Z,93.72
2023-04-16T03:06:50.709Z,93.82
2023-04-16T03:09:21.025Z,93.84
2023-04-16T03:11:51.688Z,93.91
2023-04-16T03:14:22.418Z,93.58
2023-04-16T03:16:53.305Z,93.54
2023-04-16T03:19:23.779Z,93.51
2023-04-16T03:21:54.504Z,93.42
2023-04-16T03:24:26.077Z,93.52
2023-04-16T03:26:58.089Z,93.49
2023-04-16T03:29:28.790Z,93.46
2023-04-16T03:31:59.287Z,93.42
2023-04-16T03:34:29.713Z,93.42
2023-04-16T03:37:00.663Z,93.37
2023-04-16T03:39:31.565Z,93.53
2023-04-16T03:42:03.410Z,93.68
2023-04-16T03:44:33.813Z,93.87
2023-04-16T03:47:04.849Z,93.78
2023-04-16T03:49:35.762Z,93.78
2023-04-16T03:52:06.460Z,93.79
2023-04-16T03:54:36.664Z,93.65
2023-04-16T03:57:07.106Z,93.99
2023-04-16T03:59:37.794Z,93.98
2023-04-16T04:02:08.536Z,94.11
2023-04-16T04:04:39.466Z,94.32
2023-04-16T04:07:09.838Z,94.24
2023-04-16T04:09:40.284Z,94.11
2023-04-16T04:12:11.258Z,94.35
2023-04-16T04:14:41.825Z,94.48
2023-04-16T04:17:12.769Z,94.40
2023-04-16T04:19:54.300Z,94.19
2023-04-16T04:22:31.179Z,94.23
2023-04-16T04:25:02.100Z,94.52
2023-04-16T04:27:32.585Z,94.67
2023-04-16T04:30:04.101Z,94.84
2023-04-16T04:32:34.618Z,95.12
2023-04-16T04:35:06.069Z,95.26
2023-04-16T04:37:37.239Z,95.63
2023-04-16T04:40:09.606Z,95.76
2023-04-16T04:42:40.223Z,95.82
2023-04-16T04:45:12.792Z,96.03
2023-04-16T04:47:43.618Z,96.09
2023-04-16T04:50:14.378Z,96.13
2023-04-16T04:52:45.229Z,96.39
2023-04-16T04:55:16.056Z,96.50
2023-04-16T04:57:46.585Z,96.59
2023-04-16T05:00:17.129Z,96.87
2023-04-16T05:02:47.953Z,96.95
2023-04-16T05:05:18.631Z,97.10
2023-04-16T05:07:49.945Z,97.17
2023-04-16T05:10:20.469Z,97.10
2023-04-16T05:12:51.059Z,97.00
2023-04-16T05:15:21.770Z,96.95
2023-04-16T05:17:52.550Z,96.94
2023-04-16T05:20:23.910Z,96.83
2023-04-16T05:22:55.351Z,97.08
2023-04-16T05:25:26.129Z,96.87
2023-04-16T05:27:56.572Z,96.95
2023-04-16T05:30:26.963Z,96.89
2023-04-16T05:32:57.721Z,96.89
2023-04-16T05:35:28.291Z,96.88
2023-04-16T05:37:58.884Z,96.66
2023-04-16T05:40:29.897Z,96.56
2023-04-16T05:43:00.281Z,96.67
2023-04-16T05:45:31.216Z,96.70
2023-04-16T05:48:02.030Z,96.77
2023-04-16T05:50:32.434Z,96.65
2023-04-16T05:53:03.702Z,96.80
2023-04-16T05:55:35.417Z,96.80
2023-04-16T05:58:06.620Z,96.93
2023-04-16T06:00:37.181Z,96.67
2023-04-16T06:03:07.874Z,96.76
2023-04-16T06:05:38.688Z,96.63
2023-04-16T06:08:09.588Z,96.45
2023-04-16T06:10:40.290Z,96.43
2023-04-16T06:13:11.295Z,96.64
2023-04-16T06:15:41.762Z,96.31
2023-04-16T06:18:12.306Z,96.50
2023-04-16T06:20:43.705Z,96.45
2023-04-16T06:23:14.127Z,96.58
2023-04-16T06:25:44.548Z,96.49
2023-04-16T06:28:15.426Z,96.35
2023-04-16T06:30:45.965Z,96.23
2023-04-16T06:33:16.435Z,96.40
2023-04-16T06:35:47.101Z,96.33
2023-04-16T06:38:17.546Z,96.25
2023-04-16T06:40:49.350Z,96.20
2023-04-16T06:43:20.406Z,96.10
2023-04-16T06:45:51.171Z,96.09
2023-04-16T06:48:21.843Z,96.19
2023-04-16T06:50:52.923Z,95.91
2023-04-16T06:53:23.537Z,95.95
2023-04-16T06:55:54.048Z,95.74
2023-04-16T06:58:25.017Z,95.61
2023-04-16T07:00:55.675Z,95.62
2023-04-16T07:03:26.492Z,95.63
2023-04-16T07:05:57.497Z,95.58
2023-04-16T07:08:28.033Z,95.68
2023-04-16T07:10:58.596Z,95.71
2023-04-16T07:13:29.144Z,95.42
2023-04-16T07:15:59.937Z,95.53
2023-04-16T07:18:30.486Z,95.68
2023-04-16T07:21:01.081Z,95.44
2023-04-16T07:23:32.048Z,95.34
2023-04-16T07:26:02.947Z,95.46
2023-04-16T07:28:33.669Z,95.39
2023-04-16T07:31:04.547Z,95.12
2023-04-16T07:33:35.581Z,95.20
2023-04-16T07:36:06.485Z,95.24
2023-04-16T07:38:37.547Z,95.24
2023-04-16T07:41:08.856Z,95.04
2023-04-16T07:43:39.978Z,95.10
2023-04-16T07:46:10.769Z,94.80
2023-04-16T07:48:41.458Z,94.72
2023-04-16T07:51:11.874Z,94.68
2023-04-16T07:53:43.483Z,94.58
2023-04-16T07:56:14.760Z,94.56
2023-04-16T07:58:45.190Z,94.35
2023-04-16T08:01:16.562Z,94.07
2023-04-16T08:03:47.303Z,94.17
2023-04-16T08:06:18.129Z,94.11
2023-04-16T08:08:48.609Z,94.33
2023-04-16T08:11:19.194Z,94.31
2023-04-16T08:13:49.574Z,94.69
2023-04-16T08:16:20.082Z,94.48
2023-04-16T08:18:50.544Z,93.98
2023-04-16T08:21:21.075Z,94.09
2023-04-16T08:23:52.117Z,93.82
2023-04-16T08:26:23.908Z,93.62
2023-04-16T08:28:54.601Z,93.52
2023-04-16T08:31:25.216Z,93.52
2023-04-16T08:33:55.693Z,93.58
2023-04-16T08:36:26.488Z,93.67
2023-04-16T08:38:57.197Z,93.72
2023-04-16T08:41:31.970Z,93.39
2023-04-16T08:44:06.567Z,93.20
2023-04-16T08:46:39.500Z,92.91
2023-04-16T08:49:14.581Z,92.90
2023-04-16T08:51:51.163Z,92.68
2023-04-16T08:54:32.794Z,92.70
2023-04-16T08:57:06.869Z,92.72
2023-04-16T08:59:39.169Z,92.61
2023-04-16T09:02:10.961Z,92.55
2023-04-16T09:04:42.917Z,92.13
2023-04-16T09:07:14.035Z,92.08
2023-04-16T09:09:45.041Z,92.17
2023-04-16T09:12:15.635Z,92.34
2023-04-16T09:14:48.382Z,92.25
2023-04-16T09:17:19.149Z,92.10
2023-04-16T09:19:49.659Z,91.92
2023-04-16T09:22:20.799Z,91.88
2023-04-16T09:24:51.409Z,91.64
2023-04-16T09:27:23.735Z,91.91
2023-04-16T09:29:55.926Z,92.56
2023-04-16T09:32:29.885Z,92.78
2023-04-16T09:35:02.324Z,93.19
2023-04-16T09:37:33.433Z,93.45
2023-04-16T09:40:05.323Z,93.42
2023-04-16T09:42:37.291Z,93.40
2023-04-16T09:45:09.363Z,93.66
2023-04-16T09:47:45.435Z,93.86
2023-04-16T09:50:19.405Z,94.20
2023-04-16T09:52:51.888Z,94.26
2023-04-16T09:55:28.213Z,94.36
2023-04-16T09:58:03.408Z,94.46
2023-04-16T10:00:33.953Z,94.38
2023-04-16T10:03:08.223Z,94.59
2023-04-16T10:05:38.871Z,94.47
2023-04-16T10:08:15.374Z,94.49
2023-04-16T10:10:45.957Z,94.59
2023-04-16T10:13:17.635Z,94.20
2023-04-16T10:15:49.344Z,94.46
2023-04-16T10:18:20.221Z,94.06
2023-04-16T10:20:51.302Z,93.88
2023-04-16T10:23:22.497Z,93.84
2023-04-16T10:25:54.131Z,93.78
2023-04-16T10:28:25.581Z,93.57
2023-04-16T10:30:57.839Z,93.55
2023-04-16T10:33:30.546Z,93.58
2023-04-16T10:36:14.578Z,93.68
2023-04-16T10:38:50.707Z,93.63
2023-04-16T10:41:22.322Z,93.87
2023-04-16T10:43:53.988Z,94.11
2023-04-16T10:46:26.925Z,93.91
2023-04-16T10:49:02.783Z,93.92
2023-04-16T10:51:34.450Z,93.78
2023-04-16T10:54:23.999Z,93.45
2023-04-16T10:56:57.343Z,93.40
2023-04-16T10:59:31.527Z,93.19
2023-04-16T11:02:07.490Z,92.93
2023-04-16T11:04:39.993Z,92.91
2023-04-16T11:07:18.670Z,92.18
2023-04-16T11:09:59.765Z,92.56
2023-04-16T11:12:40.425Z,92.69
2023-04-16T11:15:12.792Z,92.66
2023-04-16T11:17:44.976Z,92.27
2023-04-16T11:20:20.875Z,92.20
2023-04-16T11:22:52.453Z,92.11
2023-04-16T11:25:26.717Z,92.00
2023-04-16T11:27:58.699Z,91.82
2023-04-16T11:30:33.888Z,91.74
2023-04-16T11:33:06.362Z,91.88
2023-04-16T11:35:37.007Z,92.17
2023-04-16T11:38:08.011Z,91.76
2023-04-16T11:40:38.684Z,91.44
2023-04-16T11:43:16.633Z,91.53
2023-04-16T11:46:02.621Z,90.95
2023-04-16T11:48:50.101Z,90.91
2023-04-16T11:51:23.051Z,90.66
2023-04-16T11:53:54.618Z,90.14
2023-04-16T11:56:33.387Z,89.79
2023-04-16T11:59:11.794Z,90.21
2023-04-16T12:01:45.536Z,90.56
2023-04-16T12:04:16.980Z,90.27
2023-04-16T12:07:07.553Z,90.25
2023-04-16T12:09:40.673Z,89.71
2023-04-16T12:12:30.691Z,89.26
2023-04-16T12:15:04.343Z,89.48
2023-04-16T12:17:36.683Z,89.41
2023-04-16T12:20:12.090Z,89.30
2023-04-16T12:22:46.098Z,89.21
2023-04-16T12:25:18.477Z,89.30
2023-04-16T12:27:53.407Z,88.59
2023-04-16T12:30:26.245Z,88.08
2023-04-16T12:33:16.578Z,88.00
2023-04-16T12:35:50.912Z,87.94
2023-04-16T12:38:24.095Z,87.96
2023-04-16T12:40:56.987Z,87.73
2023-04-16T12:43:28.497Z,86.94
2023-04-16T12:45:59.097Z,86.46
2023-04-16T12:48:29.566Z,86.26
2023-04-16T12:51:00.437Z,86.17
2023-04-16T12:53:31.040Z,86.48
2023-04-16T12:56:01.574Z,86.80
2023-04-16T12:58:32.026Z,85.95
2023-04-16T13:01:02.504Z,86.07
2023-04-16T13:03:36.420Z,85.92
2023-04-16T13:06:07.781Z,86.27
2023-04-16T13:08:39.155Z,86.31
2023-04-16T13:11:09.831Z,86.27
2023-04-16T13:13:40.432Z,86.40
2023-04-16T13:16:11.244Z,86.31
2023-04-16T13:18:43.463Z,86.22
2023-04-16T13:21:14.390Z,85.33
2023-04-16T13:23:45.069Z,85.19
2023-04-16T13:26:16.305Z,84.77
2023-04-16T13:28:46.737Z,84.46
2023-04-16T13:31:20.457Z,84.28
2023-04-16T13:33:51.174Z,84.28
2023-04-16T13:36:21.632Z,84.24
2023-04-16T13:38:52.052Z,84.34
2023-04-16T13:41:22.982Z,84.38
2023-04-16T13:43:53.552Z,84.40
2023-04-16T13:46:24.060Z,84.54
2023-04-16T13:48:54.558Z,84.57
2023-04-16T13:51:25.092Z,84.38
2023-04-16T13:53:56.351Z,84.45
2023-04-16T13:56:27.381Z,84.54
2023-04-16T13:58:57.821Z,84.64
2023-04-16T14:01:28.786Z,84.39
2023-04-16T14:04:01.954Z,84.44
2023-04-16T14:06:33.068Z,84.56
2023-04-16T14:09:04.202Z,84.78
2023-04-16T14:11:35.079Z,85.02
2023-04-16T14:14:05.733Z,85.13
2023-04-16T14:16:36.558Z,85.12
2023-04-16T14:19:07.295Z,85.37
2023-04-16T14:21:37.913Z,85.51
2023-04-16T14:24:10.467Z,85.44
2023-04-16T14:26:41.013Z,85.69
2023-04-16T14:29:12.213Z,85.92
2023-04-16T14:31:42.710Z,85.69
2023-04-16T14:34:13.820Z,85.64
2023-04-16T14:36:44.373Z,85.66
2023-04-16T14:39:15.034Z,85.58
2023-04-16T14:41:45.947Z,85.42
2023-04-16T14:44:16.505Z,85.25
2023-04-16T14:46:47.281Z,84.95
2023-04-16T14:49:18.295Z,84.39
2023-04-16T14:51:49.338Z,83.58
2023-04-16T14:54:20.369Z,83.32
2023-04-16T14:56:51.905Z,82.40
2023-04-16T14:59:22.316Z,82.06
2023-04-16T15:01:53.704Z,80.94
2023-04-16T15:04:24.416Z,81.46
2023-04-16T15:06:58.797Z,81.56
2023-04-16T15:09:29.848Z,81.10
2023-04-16T15:12:00.713Z,81.35
2023-04-16T15:14:31.528Z,80.47
2023-04-16T15:17:02.122Z,80.28
2023-04-16T15:19:32.551Z,80.07
2023-04-16T15:22:03.046Z,80.19
2023-04-16T15:24:33.402Z,80.21
2023-04-16T15:27:05.769Z,80.32
2023-04-16T15:29:36.272Z,80.21
2023-04-16T15:32:07.249Z,80.89
2023-04-16T15:34:37.945Z,81.09
2023-04-16T15:37:09.573Z,81.75
2023-04-16T15:39:39.977Z,81.08
2023-04-16T15:42:11.141Z,80.19
2023-04-16T15:44:42.191Z,79.78
2023-04-16T15:47:12.903Z,78.37
2023-04-16T15:49:43.610Z,78.34
2023-04-16T15:52:14.787Z,77.79
2023-04-16T15:54:45.703Z,77.16
2023-04-16T15:57:16.951Z,76.77
2023-04-16T15:59:59.553Z,76.11
2023-04-16T16:02:36.653Z,76.05
2023-04-16T16:05:10.434Z,76.29
2023-04-16T16:07:41.401Z,75.83
2023-04-16T16:10:13.899Z,76.09
2023-04-16T16:12:44.277Z,76.44
2023-04-16T16:15:15.229Z,76.64
2023-04-16T16:17:45.696Z,76.85
2023-04-16T16:20:16.947Z,76.67
2023-04-16T16:22:48.341Z,76.90
2023-04-16T16:25:19.313Z,77.30
2023-04-16T16:27:50.318Z,77.12
2023-04-16T16:30:20.983Z,77.16
2023-04-16T16:32:51.657Z,77.38
2023-04-16T16:35:22.640Z,77.63
2023-04-16T16:37:55.625Z,77.99
2023-04-16T16:40:26.361Z,77.84
2023-04-16T16:42:56.977Z,78.32
2023-04-16T16:45:28.557Z,78.13
2023-04-16T16:47:59.235Z,78.38
2023-04-16T16:50:31.977Z,78.86
2023-04-16T16:53:02.706Z,79.20
2023-04-16T16:55:35.063Z,78.89
2023-04-16T16:58:05.692Z,79.22
2023-04-16T17:00:37.072Z,79.31
2023-04-16T17:03:08.760Z,79.40
2023-04-16T17:05:39.459Z,79.57
2023-04-16T17:08:09.938Z,79.39
2023-04-16T17:10:40.812Z,79.43
2023-04-16T17:13:13.541Z,79.45
2023-04-16T17:15:44.382Z,79.47
2023-04-16T17:18:15.024Z,79.39
2023-04-16T17:20:45.637Z,79.61
2023-04-16T17:23:16.197Z,79.80
2023-04-16T17:25:46.971Z,79.81
2023-04-16T17:28:17.730Z,79.81
2023-04-16T17:30:53.421Z,79.79
2023-04-16T17:33:24.514Z,79.95
2023-04-16T17:35:55.326Z,80.07
2023-04-16T17:38:25.819Z,80.36
2023-04-16T17:40:57.122Z,80.37
2023-04-16T17:43:28.165Z,80.19
2023-04-16T17:45:58.613Z,79.79
2023-04-16T17:48:29.117Z,79.49
2023-04-16T17:50:59.561Z,79.80
2023-04-16T17:53:29.991Z,79.97
2023-04-16T17:56:00.293Z,79.85
2023-04-16T17:58:32.802Z,79.96
2023-04-16T18:01:03.439Z,80.08
2023-04-16T18:03:34.492Z,79.87
2023-04-16T18:06:05.274Z,79.89
2023-04-16T18:08:36.907Z,80.02
2023-04-16T18:11:10.044Z,80.29
2023-04-16T18:13:40.558Z,80.24
2023-04-16T18:16:16.966Z,80.54
2023-04-16T18:18:47.827Z,80.46
2023-04-16T18:21:18.447Z,80.58
2023-04-16T18:23:48.897Z,80.55
2023-04-16T18:26:22.289Z,80.63
2023-04-16T18:28:53.481Z,80.78
2023-04-16T18:31:24.272Z,80.77
2023-04-16T18:33:58.372Z,81.09
2023-04-16T18:36:29.267Z,81.38
2023-04-16T18:39:02.109Z,81.22
2023-04-16T18:41:33.675Z,81.23
2023-04-16T18:44:04.224Z,81.48
2023-04-16T18:46:34.965Z,81.46
2023-04-16T18:49:05.603Z,81.47
2023-04-16T18:51:36.118Z,81.48
2023-04-16T18:54:06.877Z,81.42
2023-04-16T18:56:37.590Z,81.51
2023-04-16T18:59:08.644Z,81.49
2023-04-16T19:01:39.653Z,81.40
2023-04-16T19:04:10.051Z,81.42
2023-04-16T19:06:40.491Z,81.64
2023-04-16T19:09:11.714Z,81.67
2023-04-16T19:11:42.833Z,81.50
2023-04-16T19:14:13.692Z,81.47
2023-04-16T19:16:44.345Z,81.45
2023-04-16T19:19:14.893Z,81.45
2023-04-16T19:21:45.660Z,81.54
2023-04-16T19:24:16.572Z,81.61
2023-04-16T19:26:47.035Z,81.65
2023-04-16T19:29:18.024Z,81.71
2023-04-16T19:31:48.685Z,81.77
2023-04-16T19:34:19.292Z,81.66
2023-04-16T19:36:49.842Z,81.60
2023-04-16T19:39:20.314Z,81.63
2023-04-16T19:41:50.735Z,81.54
2023-04-16T19:44:23.034Z,81.66
2023-04-16T19:46:53.469Z,81.38
2023-04-16T19:49:25.168Z,81.18
2023-04-16T19:51:55.746Z,81.29
2023-04-16T19:54:26.284Z,80.84
2023-04-16T19:56:57.168Z,80.90
2023-04-16T19:59:28.600Z,80.96
2023-04-16T20:01:59.169Z,80.95
2023-04-16T20:04:29.831Z,81.05
2023-04-16T20:07:00.307Z,81.22
2023-04-16T20:09:30.985Z,81.32
2023-04-16T20:12:02.117Z,81.45
2023-04-16T20:14:32.595Z,81.65
2023-04-16T20:17:03.412Z,81.92
2023-04-16T20:19:37.753Z,81.95
2023-04-16T20:22:08.212Z,82.02
2023-04-16T20:24:38.678Z,82.23
2023-04-16T20:27:09.115Z,82.61
2023-04-16T20:29:39.605Z,83.14
2023-04-16T20:32:10.343Z,83.38
2023-04-16T20:34:40.844Z,83.57
2023-04-16T20:37:11.573Z,83.75
2023-04-16T20:39:42.267Z,83.95
2023-04-16T20:42:13.188Z,84.25
2023-04-16T20:44:50.382Z,84.31
2023-04-16T20:47:22.466Z,84.66
2023-04-16T20:49:54.893Z,84.58
2023-04-16T20:52:25.727Z,84.51
2023-04-16T20:54:56.203Z,84.46
2023-04-16T20:57:28.138Z,84.44
2023-04-16T20:59:59.508Z,84.65
2023-04-16T21:02:30.343Z,84.52
2023-04-16T21:05:01.119Z,84.57
2023-04-16T21:07:31.819Z,84.62
2023-04-16T21:10:02.816Z,84.78
2023-04-16T21:12:33.256Z,84.82
2023-04-16T21:15:04.178Z,84.58
2023-04-16T21:17:35.041Z,84.76
2023-04-16T21:20:10.545Z,84.65
2023-04-16T21:22:41.022Z,84.60
2023-04-16T21:25:12.373Z,84.78
2023-04-16T21:27:43.128Z,85.04
2023-04-16T21:30:15.729Z,84.95
2023-04-16T21:32:47.490Z,85.01
2023-04-16T21:35:18.038Z,84.88
2023-04-16T21:37:48.825Z,84.86
2023-04-16T21:40:19.424Z,84.91
2023-04-16T21:42:49.922Z,84.97
2023-04-16T21:45:20.726Z,85.05
2023-04-16T21:47:51.219Z,85.09
2023-04-16T21:50:21.878Z,85.06
2023-04-16T21:52:52.541Z,85.10
2023-04-16T21:55:24.254Z,85.12
2023-04-16T21:57:54.920Z,85.15
2023-04-16T22:00:25.784Z,85.12
2023-04-16T22:02:56.744Z,85.13
2023-04-16T22:05:27.436Z,85.08
2023-04-16T22:07:58.249Z,85.05
2023-04-16T22:10:28.717Z,85.16
2023-04-16T22:12:59.461Z,84.92
2023-04-16T22:15:30.416Z,84.97
2023-04-16T22:18:01.165Z,84.83
2023-04-16T22:20:38.731Z,84.86
2023-04-16T22:23:09.567Z,84.89
2023-04-16T22:25:40.554Z,84.92
2023-04-16T22:28:11.264Z,84.89
2023-04-16T22:30:41.718Z,84.86
2023-04-16T22:33:12.223Z,84.81
2023-04-16T22:35:42.782Z,85.01
2023-04-16T22:38:13.177Z,84.75
2023-04-16T22:40:43.900Z,84.92
2023-04-16T22:43:14.672Z,84.83
2023-04-16T22:45:47.137Z,84.74
2023-04-16T22:48:18.603Z,84.80
2023-04-16T22:50:50.964Z,84.80
2023-04-16T22:53:21.808Z,84.67
2023-04-16T22:55:52.251Z,84.72
2023-04-16T22:58:22.825Z,84.62
2023-04-16T23:00:54.258Z,84.56
2023-04-16T23:03:24.889Z,84.59
2023-04-16T23:05:55.456Z,84.33
2023-04-16T23:08:25.927Z,84.20
2023-04-16T23:10:56.406Z,84.11
2023-04-16T23:13:26.889Z,84.14
2023-04-16T23:15:57.421Z,84.44
2023-04-16T23:18:28.234Z,84.28
2023-04-16T23:20:58.650Z,84.32
2023-04-16T23:23:29.256Z,84.25
2023-04-16T23:26:00.903Z,84.20
2023-04-16T23:28:31.415Z,83.93
2023-04-16T23:31:02.191Z,84.00
2023-04-16T23:33:33.414Z,84.03
2023-04-16T23:36:04.172Z,84.01
2023-04-16T23:38:34.556Z,83.98
2023-04-16T23:41:05.003Z,83.90
2023-04-16T23:43:36.403Z,84.00
2023-04-16T23:46:07.191Z,83.94
2023-04-16T23:48:37.995Z,84.07
2023-04-16T23:51:08.721Z,84.05
2023-04-16T23:53:40.675Z,83.86
2023-04-16T23:56:12.043Z,83.86
2023-04-16T23:58:42.761Z,83.97
